Providence Village's Hourly Summary for Saturday, May 12, 2018
Hour Temp
(f)
RH
(%)
Solar Rad.
(MJ/m2)
Rainfall
(in)
Wind
(mph)
5/12/2018 12:00 AM 79 53 0 0 7.67
5/12/2018 1:00 AM 78 57 0 0 9.85
5/12/2018 2:00 AM 77 61 0 0 10.49
5/12/2018 3:00 AM 75 66 0 0 10.34
5/12/2018 4:00 AM 73 74 0 0 9.92
5/12/2018 5:00 AM 73 78 0 0 9.82
5/12/2018 6:00 AM 73 78 0 0 8.8
5/12/2018 7:00 AM 73 80 0.02 0 7.51
5/12/2018 8:00 AM 73 81 0.31 0 8.23
5/12/2018 9:00 AM 74 78 0.53 0 9.05
5/12/2018 10:00 AM 76 71 1.36 0 9.99
5/12/2018 11:00 AM 78 60 2.31 0 10.47
5/12/2018 12:00 PM 81 54 2.98 0 9.73
5/12/2018 1:00 PM 83 50 2.95 0 9.1
5/12/2018 2:00 PM 84 46 3.21 0 9.19
5/12/2018 3:00 PM 86 42 3.12 0 9.38
5/12/2018 4:00 PM 87 40 2.86 0 9.24
5/12/2018 5:00 PM 87 41 2.38 0 8.89
5/12/2018 6:00 PM 87 41 1.78 0 8.56
5/12/2018 7:00 PM 87 41 1.09 0 7.63
5/12/2018 8:00 PM 85 44 0.4 0 7.14
5/12/2018 9:00 PM 83 48 0.02 0 6.68
5/12/2018 10:00 PM 82 52 0 0 5.09
5/12/2018 11:00 PM 80 56 0 0 4.06
Data Summary 79 58 25.32 0.00 8.62